YFC93 WSSL-WSSL
Flight info
| Callsign | YFC93 |
|---|---|
| Flight time | 0h 30m |
| Altitude | 14000 |
| Route | OMKOM DCT NYLON DCT WSSS DCT SJ DCT WSAP DCT RECHI |
| Aircraft | C25B/M-SDE2E3FGHRWXY/LB1 |
Departure
| Time | 2026-05-07 15:56 |
|---|---|
| Airport | Seletar Airport (WSSL) |
Arrival
| Time | 2026-05-07 16:27 |
|---|---|
| Airport | Seletar Airport (WSSL) |
| Time | Latitude | Longitude | Altitude | Speed | Heading |
|---|---|---|---|---|---|
| 2026-05-07 15:48 | 1.41453 | 103.86395 | 50 ft | 0 kts | 149° |
| 2026-05-07 15:50 | 1.41452 | 103.86395 | 50 ft | 0 kts | 149° |
| 2026-05-07 15:50 | 1.41440 | 103.86416 | 50 ft | 7 kts | 34° |
| 2026-05-07 15:50 | 1.41490 | 103.86462 | 50 ft | 12 kts | 32° |
| 2026-05-07 15:50 | 1.41520 | 103.86473 | 50 ft | 0 kts | 359° |
| 2026-05-07 15:53 | 1.41523 | 103.86476 | 50 ft | 2 kts | 57° |
| 2026-05-07 15:54 | 1.41559 | 103.86507 | 50 ft | 6 kts | 33° |
| 2026-05-07 15:54 | 1.41552 | 103.86542 | 50 ft | 0 kts | 125° |
| 2026-05-07 15:55 | 1.41536 | 103.86566 | 50 ft | 10 kts | 123° |
| 2026-05-07 15:55 | 1.41513 | 103.86647 | 51 ft | 16 kts | 37° |
| 2026-05-07 15:55 | 1.41622 | 103.86717 | 49 ft | 27 kts | 32° |
| 2026-05-07 15:56 | 1.41949 | 103.86937 | 104 ft | 75 kts | 34° |
| 2026-05-07 15:56 | 1.42403 | 103.87223 | 363 ft | 78 kts | 32° |
| 2026-05-07 15:56 | 1.42870 | 103.87516 | 603 ft | 81 kts | 34° |
| 2026-05-07 15:56 | 1.43377 | 103.87713 | 879 ft | 79 kts | 354° |
| 2026-05-07 15:57 | 1.43849 | 103.87408 | 1092 ft | 79 kts | 296° |
| 2026-05-07 15:57 | 1.43717 | 103.86947 | 1298 ft | 83 kts | 229° |
| 2026-05-07 15:57 | 1.43331 | 103.86528 | 1513 ft | 89 kts | 224° |
| 2026-05-07 15:57 | 1.42849 | 103.86016 | 1552 ft | 104 kts | 226° |
| 2026-05-07 15:58 | 1.42381 | 103.85504 | 1574 ft | 94 kts | 227° |
| 2026-05-07 15:58 | 1.41923 | 103.85032 | 1496 ft | 96 kts | 224° |
| 2026-05-07 15:58 | 1.41466 | 103.84567 | 1524 ft | 94 kts | 224° |
| 2026-05-07 15:58 | 1.41026 | 103.84079 | 1589 ft | 95 kts | 228° |
| 2026-05-07 15:59 | 1.40595 | 103.83550 | 1565 ft | 98 kts | 231° |
| 2026-05-07 15:59 | 1.40201 | 103.83018 | 1746 ft | 95 kts | 231° |
| 2026-05-07 15:59 | 1.39813 | 103.82496 | 2043 ft | 90 kts | 231° |
| 2026-05-07 15:59 | 1.39462 | 103.82000 | 2345 ft | 86 kts | 234° |
| 2026-05-07 16:00 | 1.39370 | 103.81439 | 2648 ft | 77 kts | 262° |
| 2026-05-07 16:00 | 1.39321 | 103.80893 | 2892 ft | 80 kts | 261° |
| 2026-05-07 16:00 | 1.39252 | 103.80363 | 3180 ft | 76 kts | 258° |
| 2026-05-07 16:00 | 1.39176 | 103.79821 | 3396 ft | 82 kts | 261° |
| 2026-05-07 16:01 | 1.39142 | 103.79248 | 3648 ft | 85 kts | 276° |
| 2026-05-07 16:01 | 1.39470 | 103.78782 | 3955 ft | 81 kts | 322° |
| 2026-05-07 16:01 | 1.39954 | 103.78517 | 4225 ft | 81 kts | 331° |
| 2026-05-07 16:01 | 1.40472 | 103.78255 | 4471 ft | 83 kts | 314° |
| 2026-05-07 16:02 | 1.40629 | 103.77754 | 4763 ft | 73 kts | 268° |
| 2026-05-07 16:02 | 1.40490 | 103.77276 | 4933 ft | 81 kts | 214° |
| 2026-05-07 16:02 | 1.39927 | 103.77178 | 5174 ft | 83 kts | 183° |
| 2026-05-07 16:02 | 1.39309 | 103.77173 | 5306 ft | 99 kts | 180° |
| 2026-05-07 16:03 | 1.38832 | 103.77180 | 5298 ft | 109 kts | 180° |
| 2026-05-07 16:03 | 1.38065 | 103.77185 | 5385 ft | 109 kts | 179° |
| 2026-05-07 16:03 | 1.37050 | 103.77313 | 5431 ft | 116 kts | 150° |
| 2026-05-07 16:03 | 1.36727 | 103.77743 | 5446 ft | 120 kts | 105° |
| 2026-05-07 16:04 | 1.36968 | 103.78522 | 5470 ft | 121 kts | 61° |
| 2026-05-07 16:04 | 1.37421 | 103.79228 | 5469 ft | 121 kts | 56° |
| 2026-05-07 16:04 | 1.38105 | 103.80121 | 5482 ft | 123 kts | 50° |
| 2026-05-07 16:04 | 1.38486 | 103.80543 | 5482 ft | 124 kts | 46° |
| 2026-05-07 16:05 | 1.39135 | 103.81129 | 5451 ft | 128 kts | 40° |
| 2026-05-07 16:05 | 1.39835 | 103.81647 | 5501 ft | 123 kts | 34° |
| 2026-05-07 16:05 | 1.40560 | 103.82070 | 5535 ft | 119 kts | 28° |
| 2026-05-07 16:05 | 1.41309 | 103.82410 | 5514 ft | 118 kts | 11° |
| 2026-05-07 16:06 | 1.41989 | 103.82074 | 5498 ft | 115 kts | 299° |
| 2026-05-07 16:06 | 1.42371 | 103.81383 | 5495 ft | 113 kts | 295° |
| 2026-05-07 16:06 | 1.42711 | 103.80692 | 5499 ft | 108 kts | 293° |
| 2026-05-07 16:06 | 1.42999 | 103.80028 | 5495 ft | 104 kts | 290° |
| 2026-05-07 16:07 | 1.43251 | 103.79341 | 5364 ft | 113 kts | 290° |
| 2026-05-07 16:07 | 1.43536 | 103.78597 | 5408 ft | 115 kts | 288° |
| 2026-05-07 16:07 | 1.43577 | 103.77838 | 5391 ft | 113 kts | 240° |
| 2026-05-07 16:07 | 1.43121 | 103.77222 | 5380 ft | 109 kts | 232° |
| 2026-05-07 16:08 | 1.42570 | 103.76989 | 5365 ft | 101 kts | 149° |
| 2026-05-07 16:08 | 1.41980 | 103.77371 | 5313 ft | 104 kts | 151° |
| 2026-05-07 16:08 | 1.41309 | 103.77709 | 5220 ft | 106 kts | 156° |
| 2026-05-07 16:08 | 1.40665 | 103.78010 | 5224 ft | 96 kts | 159° |
| 2026-05-07 16:09 | 1.40083 | 103.78238 | 5261 ft | 88 kts | 160° |
| 2026-05-07 16:09 | 1.39504 | 103.78467 | 5224 ft | 89 kts | 158° |
| 2026-05-07 16:09 | 1.38947 | 103.78705 | 5214 ft | 87 kts | 159° |
| 2026-05-07 16:09 | 1.38720 | 103.79195 | 5193 ft | 91 kts | 73° |
| 2026-05-07 16:10 | 1.38935 | 103.79789 | 5161 ft | 91 kts | 71° |
| 2026-05-07 16:10 | 1.39167 | 103.80378 | 5071 ft | 93 kts | 71° |
| 2026-05-07 16:10 | 1.39394 | 103.80951 | 5064 ft | 89 kts | 70° |
| 2026-05-07 16:10 | 1.39237 | 103.81288 | 5273 ft | 74 kts | 189° |
| 2026-05-07 16:11 | 1.38730 | 103.81150 | 5503 ft | 77 kts | 214° |
| 2026-05-07 16:11 | 1.38444 | 103.80708 | 5754 ft | 80 kts | 240° |
| 2026-05-07 16:11 | 1.38149 | 103.80240 | 6039 ft | 76 kts | 231° |
| 2026-05-07 16:11 | 1.37830 | 103.79795 | 6288 ft | 78 kts | 231° |
| 2026-05-07 16:12 | 1.37522 | 103.79352 | 6540 ft | 77 kts | 251° |
| 2026-05-07 16:12 | 1.37609 | 103.78839 | 6790 ft | 78 kts | 287° |
| 2026-05-07 16:12 | 1.37846 | 103.78326 | 7004 ft | 82 kts | 306° |
| 2026-05-07 16:12 | 1.38225 | 103.77901 | 7028 ft | 80 kts | 322° |
| 2026-05-07 16:13 | 1.38765 | 103.77671 | 6907 ft | 91 kts | 341° |
| 2026-05-07 16:13 | 1.39367 | 103.77494 | 6753 ft | 87 kts | 346° |
| 2026-05-07 16:13 | 1.39987 | 103.77371 | 6511 ft | 94 kts | 351° |
| 2026-05-07 16:13 | 1.40646 | 103.77363 | 6313 ft | 93 kts | 353° |
| 2026-05-07 16:14 | 1.41038 | 103.76944 | 6089 ft | 92 kts | 268° |
| 2026-05-07 16:14 | 1.40670 | 103.76535 | 5915 ft | 84 kts | 183° |
| 2026-05-07 16:14 | 1.40063 | 103.76598 | 5594 ft | 95 kts | 173° |
| 2026-05-07 16:14 | 1.39484 | 103.76828 | 5436 ft | 86 kts | 150° |
| 2026-05-07 16:15 | 1.38998 | 103.77171 | 5261 ft | 85 kts | 146° |
| 2026-05-07 16:15 | 1.38514 | 103.77488 | 5108 ft | 81 kts | 152° |
| 2026-05-07 16:15 | 1.38019 | 103.77753 | 4939 ft | 81 kts | 153° |
| 2026-05-07 16:15 | 1.37646 | 103.78167 | 4778 ft | 82 kts | 115° |
| 2026-05-07 16:16 | 1.37828 | 103.78639 | 4591 ft | 89 kts | 17° |
| 2026-05-07 16:16 | 1.38456 | 103.78584 | 4360 ft | 91 kts | 346° |
| 2026-05-07 16:16 | 1.39044 | 103.78451 | 4254 ft | 84 kts | 343° |
| 2026-05-07 16:16 | 1.39628 | 103.78288 | 4043 ft | 87 kts | 343° |
| 2026-05-07 16:17 | 1.40196 | 103.78147 | 3929 ft | 81 kts | 346° |
| 2026-05-07 16:17 | 1.40773 | 103.78021 | 3685 ft | 90 kts | 340° |
| 2026-05-07 16:17 | 1.40959 | 103.77585 | 3560 ft | 75 kts | 232° |
| 2026-05-07 16:17 | 1.40499 | 103.77452 | 3374 ft | 76 kts | 185° |
| 2026-05-07 16:18 | 1.39954 | 103.77524 | 3121 ft | 83 kts | 160° |
| 2026-05-07 16:18 | 1.39425 | 103.77742 | 2927 ft | 82 kts | 151° |
| 2026-05-07 16:18 | 1.39625 | 103.78136 | 2716 ft | 88 kts | 25° |
| 2026-05-07 16:18 | 1.40191 | 103.78213 | 2608 ft | 81 kts | 349° |
| 2026-05-07 16:19 | 1.40507 | 103.77897 | 2498 ft | 68 kts | 259° |
| 2026-05-07 16:19 | 1.40213 | 103.77624 | 2353 ft | 66 kts | 171° |
| 2026-05-07 16:19 | 1.39670 | 103.77797 | 2354 ft | 97 kts | 159° |
| 2026-05-07 16:19 | 1.39077 | 103.78109 | 2453 ft | 97 kts | 141° |
| 2026-05-07 16:20 | 1.38702 | 103.78689 | 2516 ft | 101 kts | 119° |
| 2026-05-07 16:20 | 1.38420 | 103.79318 | 2602 ft | 94 kts | 106° |
| 2026-05-07 16:20 | 1.38379 | 103.79938 | 2617 ft | 88 kts | 94° |
| 2026-05-07 16:20 | 1.38472 | 103.80577 | 2452 ft | 95 kts | 81° |
| 2026-05-07 16:21 | 1.38633 | 103.81211 | 2303 ft | 89 kts | 77° |
| 2026-05-07 16:21 | 1.38815 | 103.81769 | 2184 ft | 83 kts | 69° |
| 2026-05-07 16:21 | 1.39010 | 103.82312 | 1995 ft | 84 kts | 75° |
| 2026-05-07 16:21 | 1.39176 | 103.82870 | 1771 ft | 87 kts | 80° |
| 2026-05-07 16:22 | 1.39303 | 103.83449 | 1650 ft | 79 kts | 79° |
| 2026-05-07 16:22 | 1.39428 | 103.83981 | 1507 ft | 77 kts | 78° |
| 2026-05-07 16:22 | 1.39558 | 103.84525 | 1481 ft | 91 kts | 78° |
| 2026-05-07 16:22 | 1.39729 | 103.85198 | 1505 ft | 105 kts | 76° |
| 2026-05-07 16:23 | 1.40035 | 103.85898 | 1508 ft | 113 kts | 54° |
| 2026-05-07 16:23 | 1.40655 | 103.86418 | 1505 ft | 119 kts | 38° |
| 2026-05-07 16:23 | 1.41274 | 103.86850 | 1436 ft | 101 kts | 35° |
| 2026-05-07 16:23 | 1.41874 | 103.87224 | 1186 ft | 102 kts | 33° |
| 2026-05-07 16:24 | 1.42483 | 103.87570 | 985 ft | 97 kts | 27° |
| 2026-05-07 16:24 | 1.43098 | 103.87551 | 998 ft | 98 kts | 316° |
| 2026-05-07 16:24 | 1.43459 | 103.86998 | 1038 ft | 91 kts | 280° |
| 2026-05-07 16:24 | 1.43214 | 103.86429 | 932 ft | 96 kts | 225° |
| 2026-05-07 16:25 | 1.42730 | 103.85960 | 952 ft | 95 kts | 220° |
| 2026-05-07 16:25 | 1.42238 | 103.85552 | 932 ft | 88 kts | 215° |
| 2026-05-07 16:25 | 1.41770 | 103.85241 | 906 ft | 75 kts | 210° |
| 2026-05-07 16:25 | 1.41330 | 103.84962 | 776 ft | 75 kts | 208° |
| 2026-05-07 16:26 | 1.40859 | 103.84908 | 655 ft | 73 kts | 150° |
| 2026-05-07 16:26 | 1.40493 | 103.85263 | 512 ft | 72 kts | 130° |
| 2026-05-07 16:26 | 1.40404 | 103.85719 | 362 ft | 70 kts | 74° |
| 2026-05-07 16:26 | 1.40699 | 103.86098 | 185 ft | 70 kts | 36° |
| 2026-05-07 16:27 | 1.41085 | 103.86359 | 69 ft | 64 kts | 34° |
| 2026-05-07 16:27 | 1.41428 | 103.86590 | 51 ft | 55 kts | 28° |
| 2026-05-07 16:27 | 1.41669 | 103.86747 | 49 ft | 41 kts | 33° |
| 2026-05-07 16:27 | 1.42024 | 103.86975 | 186 ft | 67 kts | 31° |
| 2026-05-07 16:28 | 1.42450 | 103.87234 | 415 ft | 75 kts | 31° |
| 2026-05-07 16:28 | 1.42915 | 103.87494 | 665 ft | 78 kts | 31° |
| 2026-05-07 16:28 | 1.43429 | 103.87546 | 903 ft | 79 kts | 326° |
| 2026-05-07 16:28 | 1.43842 | 103.87142 | 1089 ft | 86 kts | 303° |
| 2026-05-07 16:29 | 1.43805 | 103.86659 | 1354 ft | 82 kts | 225° |
| 2026-05-07 16:29 | 1.43278 | 103.86248 | 1383 ft | 104 kts | 213° |
| 2026-05-07 16:29 | 1.42641 | 103.85870 | 1396 ft | 103 kts | 209° |
| 2026-05-07 16:29 | 1.42047 | 103.85518 | 1360 ft | 94 kts | 211° |
| 2026-05-07 16:30 | 1.41491 | 103.85175 | 1118 ft | 94 kts | 210° |
| 2026-05-07 16:30 | 1.40959 | 103.84852 | 962 ft | 89 kts | 209° |
| 2026-05-07 16:30 | 1.40382 | 103.84728 | 751 ft | 87 kts | 165° |
| 2026-05-07 16:30 | 1.39967 | 103.85083 | 611 ft | 78 kts | 113° |
| 2026-05-07 16:31 | 1.40086 | 103.85578 | 416 ft | 77 kts | 52° |
| 2026-05-07 16:31 | 1.40468 | 103.85942 | 245 ft | 74 kts | 39° |
| 2026-05-07 16:31 | 1.40877 | 103.86220 | 109 ft | 69 kts | 34° |
| 2026-05-07 16:31 | 1.41248 | 103.86470 | 52 ft | 60 kts | 34° |
| 2026-05-07 16:32 | 1.41549 | 103.86665 | 50 ft | 44 kts | 37° |
| 2026-05-07 16:32 | 1.41703 | 103.86769 | 49 ft | 19 kts | 25° |
| 2026-05-07 16:32 | 1.41756 | 103.86733 | 49 ft | 12 kts | 303° |
| 2026-05-07 16:32 | 1.41780 | 103.86697 | 49 ft | 0 kts | 303° |
| 2026-05-07 16:33 | 1.41783 | 103.86692 | 49 ft | 5 kts | 303° |
| 2026-05-07 16:33 | 1.41782 | 103.86632 | 50 ft | 14 kts | 213° |
| 2026-05-07 16:33 | 1.41703 | 103.86580 | 50 ft | 11 kts | 214° |
| 2026-05-07 16:33 | 1.41636 | 103.86537 | 50 ft | 9 kts | 213° |
| 2026-05-07 16:34 | 1.41573 | 103.86492 | 50 ft | 11 kts | 222° |
| 2026-05-07 16:34 | 1.41508 | 103.86448 | 50 ft | 12 kts | 213° |
| 2026-05-07 16:34 | 1.41478 | 103.86416 | 50 ft | 6 kts | 278° |
| 2026-05-07 16:34 | 1.41462 | 103.86406 | 50 ft | 2 kts | 146° |
| 2026-05-07 16:35 | 1.41459 | 103.86407 | 50 ft | 0 kts | 150° |